PAKV Airport Information

Runway Information
Runway 03 Length 3986 ft width 100 ft
Elevation 177 ft Threshold 0 ft Heading 47
Runway 21 Length 3986 ft Width 100 ft
Elevation 177 ft Threshold 0 ft Heading 227
Airport Frequencies
Airport Navaids
Airport Weather Information & NOTAM
ADDS - METARS form results

(1457 UTC 22 July 2018)
 
METAR text: PAKV 221453Z AUTO 23003KT 8SM CLR 14/13 A3019 RMK AO2 SLP225 T01390133 56004 TSNO
Conditions at: PAKV (KALTAG , AK, US) observed 1453 UTC 22 July 2018
Temperature: 13.9°C (57°F)
Dewpoint: 13.3°C (56°F) [RH = 96%]
Pressure (altimeter): 30.19 inches Hg (1022.4 mb)
[Sea-level pressure: 1022.5 mb]
Winds: from the SW (230 degrees) at 3 MPH (3 knots; 1.6 m/s)
Visibility: 8 miles (13 km)
Ceiling: at least 12,000 feet AGL
Clouds: sky clear below 12,000 feet AGL
Weather: automated observation with no human augmentation;
there may or may not be significant weather present at this time